createdAt,value
2022-09-25T00:01:26.289Z,15.50
2022-09-25T00:03:54.434Z,7.03
2022-09-25T00:06:27.992Z,11.07
2022-09-25T00:08:57.477Z,8.33
2022-09-25T00:11:29.657Z,6.40
2022-09-25T00:13:58.773Z,6.73
2022-09-25T00:16:30.565Z,8.63
2022-09-25T00:19:32.068Z,5.57
2022-09-25T00:22:00.057Z,4.47
2022-09-25T00:24:28.026Z,5.27
2022-09-25T00:26:57.295Z,6.67
2022-09-25T00:29:25.285Z,5.87
2022-09-25T00:31:53.319Z,11.33
2022-09-25T00:34:21.308Z,11.47
2022-09-25T00:36:51.583Z,6.13
2022-09-25T00:39:19.730Z,4.03
2022-09-25T00:41:48.101Z,6.30
2022-09-25T00:44:59.430Z,8.37
2022-09-25T00:47:46.393Z,4.30
2022-09-25T00:50:27.981Z,8.43
2022-09-25T00:53:03.949Z,10.90
2022-09-25T00:55:34.258Z,6.00
2022-09-25T00:58:04.988Z,6.50
2022-09-25T01:00:35.260Z,13.00
2022-09-25T01:03:05.105Z,6.47
2022-09-25T01:05:37.088Z,7.57
2022-09-25T01:08:08.069Z,10.30
2022-09-25T01:10:37.133Z,8.80
2022-09-25T01:13:07.711Z,8.10
2022-09-25T01:15:45.075Z,8.90
2022-09-25T01:18:28.058Z,5.03
2022-09-25T01:21:29.547Z,18.33
2022-09-25T01:24:25.279Z,9.47
2022-09-25T01:27:30.206Z,8.53
2022-09-25T01:30:06.805Z,5.27
2022-09-25T01:32:45.524Z,3.83
2022-09-25T01:35:22.685Z,6.00
2022-09-25T01:37:59.873Z,12.27
2022-09-25T01:40:34.101Z,6.83
2022-09-25T01:43:10.717Z,8.67
2022-09-25T01:45:47.603Z,6.30
2022-09-25T01:48:20.331Z,5.87
2022-09-25T01:50:52.580Z,4.73
2022-09-25T01:53:27.071Z,6.57
2022-09-25T01:56:00.778Z,5.67
2022-09-25T01:58:33.909Z,10.07
2022-09-25T02:01:10.922Z,7.47
2022-09-25T02:03:44.952Z,8.27
2022-09-25T02:06:19.748Z,6.80
2022-09-25T02:08:52.286Z,7.57
2022-09-25T02:11:20.458Z,9.27
2022-09-25T02:13:52.394Z,5.00
2022-09-25T02:16:29.206Z,6.43
2022-09-25T02:19:14.722Z,9.57
2022-09-25T02:21:51.757Z,3.83
2022-09-25T02:24:26.042Z,8.73
2022-09-25T02:26:54.358Z,9.63
2022-09-25T02:29:23.315Z,7.40
2022-09-25T02:31:59.287Z,7.13
2022-09-25T02:34:28.796Z,5.23
2022-09-25T02:36:59.073Z,6.93
2022-09-25T02:39:31.407Z,6.00
2022-09-25T02:42:25.639Z,7.70
2022-09-25T02:45:23.882Z,3.63
2022-09-25T02:48:07.251Z,6.77
2022-09-25T02:50:45.712Z,5.70
2022-09-25T02:53:22.538Z,6.40
2022-09-25T02:55:58.413Z,4.97
2022-09-25T02:58:33.555Z,6.90
2022-09-25T03:01:05.670Z,6.33
2022-09-25T03:03:39.354Z,5.77
2022-09-25T03:06:09.853Z,5.13
2022-09-25T03:08:44.131Z,4.70
2022-09-25T03:11:14.508Z,6.60
2022-09-25T03:13:44.011Z,9.10
2022-09-25T03:16:18.676Z,8.37
2022-09-25T03:18:48.571Z,4.77
2022-09-25T03:21:16.547Z,4.90
2022-09-25T03:23:45.986Z,8.00
2022-09-25T03:26:13.960Z,6.33
2022-09-25T03:28:42.074Z,4.13
2022-09-25T03:31:12.801Z,3.50
2022-09-25T03:33:43.675Z,5.10
2022-09-25T03:36:15.169Z,5.37
2022-09-25T03:38:45.802Z,6.53
2022-09-25T03:41:15.580Z,3.43
2022-09-25T03:43:45.300Z,7.30
2022-09-25T03:46:16.091Z,4.23
2022-09-25T03:48:44.148Z,4.37
2022-09-25T03:51:14.070Z,7.30
2022-09-25T03:53:42.709Z,12.80
2022-09-25T03:56:14.041Z,5.40
2022-09-25T03:58:42.231Z,3.10
2022-09-25T04:01:11.250Z,2.60
2022-09-25T04:03:40.301Z,3.00
2022-09-25T04:06:09.785Z,8.00
2022-09-25T04:08:39.370Z,5.73
2022-09-25T04:11:07.657Z,3.73
2022-09-25T04:13:38.207Z,4.23
2022-09-25T04:16:08.214Z,5.43
2022-09-25T04:18:36.744Z,2.70
2022-09-25T04:21:08.285Z,4.33
2022-09-25T04:23:38.983Z,6.43
2022-09-25T04:26:08.209Z,14.73
2022-09-25T04:28:36.612Z,2.50
2022-09-25T04:31:05.322Z,2.70
2022-09-25T04:33:48.028Z,9.70
2022-09-25T04:36:16.367Z,2.80
2022-09-25T04:38:46.176Z,7.57
2022-09-25T04:41:16.464Z,2.57
2022-09-25T04:43:44.527Z,3.40
2022-09-25T04:46:21.119Z,6.83
2022-09-25T04:48:50.484Z,3.50
2022-09-25T04:51:18.626Z,2.77
2022-09-25T04:53:47.978Z,6.53
2022-09-25T04:56:17.067Z,2.60
2022-09-25T04:58:47.469Z,7.00
2022-09-25T05:01:16.164Z,4.67
2022-09-25T05:03:44.329Z,3.33
2022-09-25T05:06:12.318Z,5.23
2022-09-25T05:08:40.267Z,4.00
2022-09-25T05:11:09.940Z,7.13
2022-09-25T05:13:37.878Z,4.07
2022-09-25T05:16:06.535Z,3.87
2022-09-25T05:18:34.827Z,4.20
2022-09-25T05:21:06.020Z,3.50
2022-09-25T05:23:34.020Z,9.90
2022-09-25T05:26:02.858Z,4.30
2022-09-25T05:28:33.178Z,4.40
2022-09-25T05:31:03.471Z,6.63
2022-09-25T05:33:32.083Z,2.60
2022-09-25T05:36:02.636Z,8.63
2022-09-25T05:38:32.395Z,2.33
2022-09-25T05:41:04.838Z,2.77
2022-09-25T05:43:36.188Z,4.37
2022-09-25T05:46:04.584Z,4.93
2022-09-25T05:48:32.720Z,3.50
2022-09-25T05:51:00.669Z,6.70
2022-09-25T05:53:30.303Z,15.83
2022-09-25T05:56:00.827Z,3.03
2022-09-25T05:58:31.095Z,5.00
2022-09-25T06:01:03.850Z,6.70
2022-09-25T06:03:31.956Z,4.07
2022-09-25T06:06:01.269Z,5.13
2022-09-25T06:08:31.493Z,7.03
2022-09-25T06:11:01.257Z,14.53
2022-09-25T06:13:34.602Z,6.50
2022-09-25T06:16:05.506Z,4.37
2022-09-25T06:18:34.402Z,8.80
2022-09-25T06:21:04.941Z,5.40
2022-09-25T06:23:33.138Z,8.37
2022-09-25T06:26:03.199Z,8.90
2022-09-25T06:28:31.892Z,6.83
2022-09-25T06:31:03.795Z,6.70
2022-09-25T06:33:32.406Z,11.53
2022-09-25T06:36:01.313Z,11.27
2022-09-25T06:38:29.640Z,12.57
2022-09-25T06:41:00.609Z,12.07
2022-09-25T06:43:31.311Z,16.23
2022-09-25T06:46:04.341Z,16.63
2022-09-25T06:48:32.595Z,14.60
2022-09-25T06:51:02.146Z,16.33
2022-09-25T06:53:30.238Z,12.27
2022-09-25T06:56:00.760Z,14.67
2022-09-25T06:58:30.504Z,9.40
2022-09-25T07:00:59.033Z,18.63
2022-09-25T07:03:45.879Z,19.37
2022-09-25T07:06:16.652Z,26.47
2022-09-25T07:08:45.431Z,20.43
2022-09-25T07:11:16.151Z,23.63
2022-09-25T07:13:44.885Z,17.23
2022-09-25T07:16:15.963Z,17.90
2022-09-25T07:18:46.562Z,20.07
2022-09-25T07:21:16.660Z,18.80
2022-09-25T07:23:45.362Z,24.53
2022-09-25T07:26:15.788Z,27.23
2022-09-25T07:28:45.246Z,22.17
2022-09-25T07:31:16.738Z,25.30
2022-09-25T07:33:46.874Z,25.17
2022-09-25T07:36:16.764Z,18.80
2022-09-25T07:38:46.125Z,24.00
2022-09-25T07:41:14.563Z,25.90
2022-09-25T07:43:43.392Z,21.23
2022-09-25T07:46:12.347Z,22.50
2022-09-25T07:48:40.926Z,26.70
2022-09-25T07:51:12.863Z,14.80
2022-09-25T07:53:42.626Z,22.73
2022-09-25T07:56:12.718Z,19.60
2022-09-25T07:58:42.087Z,17.77
2022-09-25T08:01:14.227Z,18.57
2022-09-25T08:03:42.360Z,19.90
2022-09-25T08:06:13.884Z,19.33
2022-09-25T08:08:43.107Z,18.07
2022-09-25T08:11:13.727Z,18.17
2022-09-25T08:13:42.959Z,18.17
2022-09-25T08:16:13.829Z,19.27
2022-09-25T08:18:42.657Z,14.20
2022-09-25T08:21:14.138Z,15.03
2022-09-25T08:23:47.439Z,28.43
2022-09-25T08:26:15.886Z,16.47
2022-09-25T08:28:44.035Z,23.63
2022-09-25T08:31:14.379Z,23.07
2022-09-25T08:33:46.053Z,26.13
2022-09-25T08:36:16.193Z,21.40
2022-09-25T08:38:47.100Z,21.37
2022-09-25T08:41:20.105Z,15.73
2022-09-25T08:44:03.135Z,14.00
2022-09-25T08:47:04.692Z,15.07
2022-09-25T08:49:40.823Z,26.63
2022-09-25T08:52:16.908Z,13.80
2022-09-25T08:54:45.952Z,15.80
2022-09-25T08:57:29.419Z,20.30
2022-09-25T09:00:03.178Z,22.37
2022-09-25T09:02:42.099Z,15.20
2022-09-25T09:05:21.540Z,14.53
2022-09-25T09:07:57.907Z,13.60
2022-09-25T09:10:35.455Z,16.43
2022-09-25T09:13:18.221Z,20.33
2022-09-25T09:15:55.680Z,17.00
2022-09-25T09:18:28.622Z,20.13
2022-09-25T09:20:59.747Z,18.47
2022-09-25T09:23:35.758Z,23.00
2022-09-25T09:26:06.512Z,17.30
2022-09-25T09:29:06.500Z,20.43
2022-09-25T09:31:48.359Z,15.60
2022-09-25T09:35:12.796Z,19.23
2022-09-25T09:37:53.990Z,19.13
2022-09-25T09:40:37.883Z,18.97
2022-09-25T09:43:31.299Z,16.30
2022-09-25T09:46:06.727Z,14.73
2022-09-25T09:48:42.118Z,18.17
2022-09-25T09:51:18.264Z,18.13
2022-09-25T09:53:53.364Z,18.10
2022-09-25T09:56:27.767Z,19.63
2022-09-25T09:58:59.565Z,18.60
2022-09-25T10:01:42.016Z,17.97
2022-09-25T10:04:13.788Z,15.77
2022-09-25T10:06:46.994Z,17.90
2022-09-25T10:09:17.529Z,17.57
2022-09-25T10:11:52.242Z,14.07
2022-09-25T10:14:22.974Z,21.07
2022-09-25T10:16:53.263Z,17.83
2022-09-25T10:19:24.764Z,18.30
2022-09-25T10:22:00.057Z,13.50
2022-09-25T10:24:52.338Z,12.87
2022-09-25T10:27:30.925Z,25.40
2022-09-25T10:30:17.939Z,13.23
2022-09-25T10:32:58.221Z,10.93
2022-09-25T10:35:29.856Z,8.40
2022-09-25T10:38:01.299Z,7.90
2022-09-25T10:40:33.979Z,13.10
2022-09-25T10:43:20.523Z,8.13
2022-09-25T10:45:52.612Z,11.73
2022-09-25T10:48:49.188Z,8.80
2022-09-25T10:51:19.814Z,11.30
2022-09-25T10:53:49.207Z,8.57
2022-09-25T10:56:27.017Z,14.97
2022-09-25T10:59:01.905Z,9.70
2022-09-25T11:01:35.315Z,8.50
2022-09-25T11:04:09.520Z,12.43
2022-09-25T11:06:45.241Z,12.30
2022-09-25T11:09:18.281Z,7.40
2022-09-25T11:11:49.357Z,12.00
2022-09-25T11:14:32.199Z,5.47
2022-09-25T11:17:05.888Z,4.50
2022-09-25T11:19:38.206Z,5.33
2022-09-25T11:22:19.479Z,11.03
2022-09-25T11:25:01.782Z,3.20
2022-09-25T11:27:37.742Z,4.60
2022-09-25T11:30:13.020Z,10.37
2022-09-25T11:32:52.677Z,2.70
2022-09-25T11:35:42.386Z,3.03
2022-09-25T11:38:45.450Z,6.17
2022-09-25T11:41:24.888Z,4.20
2022-09-25T11:44:25.068Z,3.10
2022-09-25T11:47:05.637Z,3.27
2022-09-25T11:49:38.227Z,2.43
2022-09-25T11:52:42.484Z,2.93
2022-09-25T11:55:42.809Z,2.60
2022-09-25T11:58:47.377Z,1.60
2022-09-25T12:01:30.972Z,1.80
2022-09-25T12:04:27.547Z,1.53
2022-09-25T12:07:24.427Z,20.00
2022-09-25T12:10:20.277Z,1.20
2022-09-25T12:12:59.547Z,2.93
2022-09-25T12:15:50.186Z,2.80
2022-09-25T12:18:34.406Z,1.90
2022-09-25T12:21:10.438Z,4.17
2022-09-25T12:23:49.333Z,3.43
2022-09-25T12:26:32.880Z,1.60
2022-09-25T12:29:29.997Z,5.60
2022-09-25T12:32:09.760Z,1.63
2022-09-25T12:35:00.114Z,3.00
2022-09-25T12:37:41.673Z,2.30
2022-09-25T12:40:19.501Z,3.00
2022-09-25T12:42:56.642Z,3.60
2022-09-25T12:45:31.712Z,4.83
2022-09-25T12:48:10.387Z,2.10
2022-09-25T12:50:49.192Z,6.67
2022-09-25T12:53:31.777Z,3.63
2022-09-25T12:56:15.425Z,2.30
2022-09-25T12:59:06.150Z,2.10
2022-09-25T13:01:45.579Z,2.50
2022-09-25T13:04:42.655Z,4.17
2022-09-25T13:07:20.505Z,2.00
2022-09-25T13:09:50.794Z,4.53
2022-09-25T13:12:33.039Z,5.77
2022-09-25T13:15:09.488Z,2.83
2022-09-25T13:17:39.408Z,12.70
2022-09-25T13:20:54.553Z,5.47
2022-09-25T13:23:38.492Z,7.70
2022-09-25T13:26:19.201Z,5.10
2022-09-25T13:28:57.410Z,5.53
2022-09-25T13:31:30.253Z,4.00
2022-09-25T13:34:06.706Z,3.53
2022-09-25T13:36:42.277Z,1.53
2022-09-25T13:39:40.354Z,2.40
2022-09-25T13:42:18.190Z,4.30
2022-09-25T13:45:07.536Z,5.13
2022-09-25T13:48:07.742Z,2.37
2022-09-25T13:50:45.544Z,9.67
2022-09-25T13:53:50.990Z,7.33
2022-09-25T13:56:30.548Z,8.00
2022-09-25T13:59:40.741Z,5.53
2022-09-25T14:02:42.776Z,6.73
2022-09-25T14:05:18.534Z,5.00
2022-09-25T14:07:51.249Z,5.10
2022-09-25T14:10:20.592Z,2.83
2022-09-25T14:12:54.193Z,7.73
2022-09-25T14:15:30.167Z,2.27
2022-09-25T14:18:01.167Z,5.70
2022-09-25T14:20:38.591Z,6.00
2022-09-25T14:23:14.561Z,12.60
2022-09-25T14:25:45.342Z,2.90
2022-09-25T14:28:24.929Z,2.77
2022-09-25T14:31:22.170Z,5.30
2022-09-25T14:34:13.366Z,2.73
2022-09-25T14:36:53.753Z,2.60
2022-09-25T14:39:43.324Z,6.40
2022-09-25T14:42:41.291Z,3.77
2022-09-25T14:45:49.333Z,4.03
2022-09-25T14:48:23.607Z,4.60
2022-09-25T14:50:55.279Z,4.53
2022-09-25T14:53:31.187Z,6.50
2022-09-25T14:56:02.654Z,4.80
2022-09-25T14:58:33.420Z,2.83
2022-09-25T15:01:13.793Z,7.13
2022-09-25T15:03:48.759Z,1.87
2022-09-25T15:06:28.284Z,5.50
2022-09-25T15:08:57.289Z,5.20
2022-09-25T15:11:29.604Z,5.03
2022-09-25T15:14:11.790Z,5.93
2022-09-25T15:16:57.579Z,2.33
2022-09-25T15:19:33.083Z,8.93
2022-09-25T15:22:01.717Z,4.70
2022-09-25T15:24:32.584Z,5.93
2022-09-25T15:27:06.714Z,4.00
2022-09-25T15:29:39.226Z,5.23
2022-09-25T15:32:07.451Z,4.00
2022-09-25T15:34:36.934Z,3.70
2022-09-25T15:37:26.038Z,4.03
2022-09-25T15:39:54.591Z,2.30
2022-09-25T15:42:23.150Z,9.10
2022-09-25T15:44:51.494Z,4.93
2022-09-25T15:47:54.188Z,2.73
2022-09-25T15:50:30.513Z,1.60
2022-09-25T15:53:00.939Z,4.10
2022-09-25T15:55:32.591Z,7.80
2022-09-25T15:58:14.610Z,5.27
2022-09-25T16:01:18.048Z,1.53
2022-09-25T16:04:07.875Z,3.43
2022-09-25T16:06:42.870Z,10.03
2022-09-25T16:09:21.839Z,4.77
2022-09-25T16:11:50.241Z,2.53
2022-09-25T16:14:30.215Z,1.27
2022-09-25T16:16:59.901Z,1.27
2022-09-25T16:19:34.275Z,4.77
2022-09-25T16:22:23.220Z,3.40
2022-09-25T16:24:53.010Z,8.93
2022-09-25T16:27:28.724Z,14.33
2022-09-25T16:30:03.445Z,4.10
2022-09-25T16:32:32.371Z,2.93
2022-09-25T16:35:02.780Z,12.17
2022-09-25T16:37:35.191Z,5.93
2022-09-25T16:40:28.779Z,4.50
2022-09-25T16:42:58.727Z,11.67
2022-09-25T16:45:29.595Z,4.70
2022-09-25T16:47:59.301Z,3.83
2022-09-25T16:50:32.059Z,5.03
2022-09-25T16:53:03.578Z,3.97
2022-09-25T16:55:34.096Z,4.20
2022-09-25T16:58:03.245Z,2.57
2022-09-25T17:00:31.676Z,3.27
2022-09-25T17:02:59.790Z,19.07
2022-09-25T17:05:30.571Z,6.63
2022-09-25T17:08:02.410Z,8.30
2022-09-25T17:10:32.216Z,6.83
2022-09-25T17:13:02.556Z,3.27
2022-09-25T17:15:35.238Z,1.67
2022-09-25T17:18:07.881Z,5.67
2022-09-25T17:20:36.479Z,6.03
2022-09-25T17:23:06.040Z,15.27
2022-09-25T17:25:42.976Z,8.47
2022-09-25T17:28:15.242Z,3.90
2022-09-25T17:30:44.396Z,9.53
2022-09-25T17:33:17.771Z,7.00
2022-09-25T17:35:49.565Z,9.33
2022-09-25T17:38:19.057Z,4.13
2022-09-25T17:40:52.242Z,7.23
2022-09-25T17:43:21.388Z,13.40
2022-09-25T17:45:52.150Z,5.53
2022-09-25T17:48:24.166Z,3.43
2022-09-25T17:50:53.555Z,5.37
2022-09-25T17:53:27.798Z,6.60
2022-09-25T17:55:56.171Z,3.23
2022-09-25T17:58:26.001Z,4.83
2022-09-25T18:00:55.709Z,7.40
2022-09-25T18:03:23.854Z,2.97
2022-09-25T18:05:51.875Z,4.40
2022-09-25T18:08:20.023Z,4.30
2022-09-25T18:10:53.355Z,2.80
2022-09-25T18:13:22.059Z,8.53
2022-09-25T18:15:53.179Z,6.63
2022-09-25T18:18:21.992Z,2.97
2022-09-25T18:21:09.608Z,2.50
2022-09-25T18:23:39.067Z,6.30
2022-09-25T18:26:10.152Z,3.17
2022-09-25T18:28:38.522Z,2.10
2022-09-25T18:31:07.333Z,13.90
2022-09-25T18:33:35.426Z,4.53
2022-09-25T18:36:04.588Z,13.50
2022-09-25T18:38:32.590Z,8.47
2022-09-25T18:41:03.072Z,8.83
2022-09-25T18:43:32.660Z,28.73
2022-09-25T18:46:01.125Z,13.70
2022-09-25T18:48:29.443Z,4.93
2022-09-25T18:50:57.422Z,7.23
2022-09-25T18:53:25.580Z,8.83
2022-09-25T18:55:54.987Z,12.60
2022-09-25T18:58:23.015Z,3.43
2022-09-25T19:00:52.639Z,8.43
2022-09-25T19:03:20.604Z,7.80
2022-09-25T19:05:59.273Z,11.90
2022-09-25T19:08:27.371Z,3.37
2022-09-25T19:10:55.340Z,5.43
2022-09-25T19:13:23.674Z,12.97
2022-09-25T19:15:53.084Z,9.80
2022-09-25T19:18:21.203Z,8.20
2022-09-25T19:20:51.737Z,6.77
2022-09-25T19:23:20.234Z,12.37
2022-09-25T19:25:56.030Z,11.40
2022-09-25T19:28:24.603Z,16.03
2022-09-25T19:31:02.866Z,4.00
2022-09-25T19:33:33.753Z,13.40
2022-09-25T19:36:05.788Z,11.03
2022-09-25T19:38:35.054Z,4.20
2022-09-25T19:41:04.371Z,4.13
2022-09-25T19:43:35.672Z,4.40
2022-09-25T19:46:05.982Z,5.40
2022-09-25T19:48:34.534Z,6.67
2022-09-25T19:51:07.242Z,9.20
2022-09-25T19:53:36.436Z,6.80
2022-09-25T19:56:05.081Z,4.70
2022-09-25T19:58:36.215Z,2.87
2022-09-25T20:01:11.276Z,11.83
2022-09-25T20:03:39.625Z,3.80
2022-09-25T20:06:09.133Z,6.13
2022-09-25T20:08:38.867Z,5.10
2022-09-25T20:11:19.590Z,4.00
2022-09-25T20:13:50.043Z,5.63
2022-09-25T20:16:22.301Z,24.63
2022-09-25T20:18:51.867Z,6.63
2022-09-25T20:21:21.381Z,9.07
2022-09-25T20:23:52.037Z,7.30
2022-09-25T20:26:21.225Z,19.57
2022-09-25T20:28:53.947Z,10.60
2022-09-25T20:31:23.823Z,3.40
2022-09-25T20:33:52.371Z,6.60
2022-09-25T20:36:20.645Z,6.30
2022-09-25T20:38:50.961Z,10.00
2022-09-25T20:41:19.862Z,10.80
2022-09-25T20:43:51.466Z,7.40
2022-09-25T20:46:20.598Z,8.50
2022-09-25T20:48:52.000Z,7.20
2022-09-25T20:51:22.550Z,3.03
2022-09-25T20:53:52.398Z,8.03
2022-09-25T20:56:21.799Z,7.40
2022-09-25T20:58:53.663Z,6.17
2022-09-25T21:01:27.891Z,18.77
2022-09-25T21:04:02.850Z,4.83
2022-09-25T21:06:35.783Z,2.57
2022-09-25T21:09:07.987Z,3.60
2022-09-25T21:11:37.446Z,2.30
2022-09-25T21:14:05.824Z,10.30
2022-09-25T21:16:34.970Z,3.27
2022-09-25T21:19:05.823Z,6.27
2022-09-25T21:21:34.757Z,13.47
2022-09-25T21:24:03.213Z,6.90
2022-09-25T21:26:32.891Z,13.13
2022-09-25T21:29:03.562Z,4.87
2022-09-25T21:31:34.749Z,3.73
2022-09-25T21:34:06.130Z,3.73
2022-09-25T21:36:36.056Z,2.10
2022-09-25T21:39:05.031Z,4.87
2022-09-25T21:41:33.566Z,3.33
2022-09-25T21:44:05.742Z,3.53
2022-09-25T21:46:36.172Z,4.03
2022-09-25T21:49:08.035Z,6.13
2022-09-25T21:51:39.543Z,19.63
2022-09-25T21:54:10.650Z,11.73
2022-09-25T21:56:38.873Z,3.93
2022-09-25T21:59:09.313Z,4.63
2022-09-25T22:01:41.122Z,5.53
2022-09-25T22:04:15.974Z,15.50
2022-09-25T22:06:47.720Z,7.60
2022-09-25T22:09:19.295Z,4.47
2022-09-25T22:11:48.326Z,3.37
2022-09-25T22:14:17.069Z,6.20
2022-09-25T22:16:48.213Z,2.30
2022-09-25T22:19:22.124Z,5.83
2022-09-25T22:21:53.046Z,7.50
2022-09-25T22:24:22.771Z,17.03
2022-09-25T22:26:53.307Z,4.20
2022-09-25T22:29:22.088Z,5.50
2022-09-25T22:31:50.414Z,5.80
2022-09-25T22:34:23.504Z,5.07
2022-09-25T22:36:57.820Z,8.43
2022-09-25T22:39:28.086Z,2.50
2022-09-25T22:41:57.277Z,4.80
2022-09-25T22:44:26.356Z,2.93
2022-09-25T22:46:55.018Z,9.63
2022-09-25T22:49:24.354Z,7.63
2022-09-25T22:51:52.340Z,6.23
2022-09-25T22:54:20.509Z,18.87
2022-09-25T22:56:48.476Z,1.83
2022-09-25T22:59:17.935Z,6.60
2022-09-25T23:01:49.181Z,5.63
2022-09-25T23:04:20.879Z,5.23
2022-09-25T23:06:50.746Z,4.57
2022-09-25T23:09:21.506Z,9.73
2022-09-25T23:11:49.832Z,6.90
2022-09-25T23:14:20.488Z,2.60
2022-09-25T23:16:50.991Z,7.30
2022-09-25T23:19:20.102Z,9.20
2022-09-25T23:21:49.891Z,5.57
2022-09-25T23:24:20.104Z,5.03
2022-09-25T23:26:48.541Z,4.10
2022-09-25T23:29:19.348Z,11.00
2022-09-25T23:31:49.112Z,11.83
2022-09-25T23:34:19.002Z,2.93
2022-09-25T23:36:47.008Z,1.40
2022-09-25T23:39:20.394Z,1.80
2022-09-25T23:41:48.620Z,12.40
2022-09-25T23:44:16.588Z,2.73
2022-09-25T23:46:45.011Z,7.20
2022-09-25T23:49:13.230Z,3.40
2022-09-25T23:51:41.430Z,13.33
2022-09-25T23:54:10.891Z,1.57
2022-09-25T23:56:41.147Z,2.63
2022-09-25T23:59:11.110Z,4.90
